ポンタ・デルガダ の空港の天気 - METARとTAF

ポンタ・デルガダ空港 ( LPPD / PDL ) - ポルトガル ポンタ・デルガダ (サンミゲル島)
飛行場実況気象(Metar)
観測時間10/16 06:30 AZOST (10/16 06:30 UTC)
風向・風速西 3m/s
視程10km以上
天気現象
少しの雲 雲底高度 180m
全天の4割程度の雲 雲底高度 400m
気温21℃
湿度94%
気圧1022hPa
METARLPPD 160630Z 28006KT 9999 FEW006 SCT013 21/20 Q1022
過去の天気等 Google飛行場航空写真 Wunderground天気予報

過去48時間のMETAR

飛行場予報(TAF)
発表時間: 10/16 05:00 AZOST (10/16 05:00 UTC)
予報対象時間: 16日6時 AZOST ~ 17日6時 AZOST
風向・風速西 4m/s
視程10km以上
少しの雲 雲底高度 180m
全天の4割程度の雲 雲底高度 370m
16日6時 AZOST ~ 16日8時 AZOST に 確率 40% で一時的に
全天の8割程度の雲 雲底高度 150m
16日8時 AZOST ~ 16日12時 AZOST に一時的に
視程3000m
天気現象弱い雨霧雨 もや
全天の4割程度の雲 雲底高度 60m
全天の8割程度の雲 雲底高度 120m
16日12時 AZOST ~ 16日14時 AZOST に徐々に
風向・風速北 4m/s
全天の4割程度の雲 雲底高度 460m
16日22時 AZOST ~ 16日24時 AZOST に徐々に
風向・風速北北東 7m/s
17日0時 AZOST ~ 17日6時 AZOST に一時的に
少しの雲 雲底高度 460m
全天の4割程度の雲 雲底高度 910m
TAF LPPD 160500Z 1606/1706 28008KT 9999 FEW006 SCT012
PROB40 TEMPO 1606/1608 BKN005
TEMPO 1608/1612 3000 -RADZ BR SCT002 BKN004
BECMG 1612/1614 01008KT SCT015
BECMG 1622/1624 03013KT
TEMPO 1700/1706 FEW015 SCT030